Strandburg, South Dakota
Current Conditions -  °F | °C
As of 5:53 PM on Tuesday 25 Nov 2014 (Local Time) from KATY Reporting Station
Overcast Overcast  
Wind Chill: 20°   Ceiling: 6000
Heat Index: 29°   Visibility: 10mi
Dew Point: 22°   Wind: 9mph
Humidity: 75%   Direction: 150°SSE
Pressure: 29.83"   Gusts: NA
Location:  45.04°N, 96.76°W
Report Text: KATY 252353Z AUTO 15008KT 10SM BKN060 OVC075 M02/M06 A2983 RMK AO2 SLP129 T10171056 10000 21033 58004
Loading
Personal Weather Stations






























Interactive Weather Map New forecast layout! Learn more

10-Day Weather Forecast

Advertisements
Track Severe Weather on mobile